CheckWX is a tool to help pilots better visualize weather data.  It is not intended as a substitute for an official pre-flight weather briefing.

03:45:31 UTC

KNUQ METAR
Moffett Federal Afld Airport
Mountain View, California, USA
Current

50 mins ago

KNUQ 260256Z 31007KT 10SM CLR 15/09 A2981 RMK AO2 SLP098 T01500089 53003
Observed
May-26 @ 02:56 UTC
Wind
  • 310° at 7 KTS
Visibility
10 SM
Flight Rules
VFR
Cloud Levels
  • Clear skies
Temperature
15°C / 59°F
Dewpoint
C / 48°F
Humidity
68%
Altimeter
29.81" Hg
Pressure
1009.52 hPa
Previous

2 hours ago

KNUQ 260156Z 31009G17KT 10SM CLR 17/09 A2980 RMK AO2 SLP092 T01670089
Observed
May-26 @ 01:56 UTC
Wind
  • 310° at 9 KTS
  • Gusting to 17 KTS
Visibility
10 SM
Flight Rules
VFR
Cloud Levels
  • Clear skies
Temperature
17°C / 63°F
Dewpoint
C / 48°F
Humidity
59%
Altimeter
29.8" Hg
Pressure
1009.12 hPa
Previous

3 hours ago

KNUQ 260056Z 31008KT 10SM CLR 19/09 A2980 RMK AO2 SLP093 T01890094
Observed
May-26 @ 00:56 UTC
Wind
  • 310° at 8 KTS
Visibility
10 SM
Flight Rules
VFR
Cloud Levels
  • Clear skies
Temperature
19°C / 66°F
Dewpoint
C / 48°F
Humidity
52%
Altimeter
29.8" Hg
Pressure
1009.12 hPa